Alton, New Hampshire
Current Conditions -  °F | °C
As of 11:15 AM on Sunday 23 Nov 2014 (Local Time) from KLCI Reporting Station
Overcast Overcast  
Wind Chill: 54°   Ceiling: 7000
Heat Index: 54°   Visibility: 10mi
Dew Point: 39°   Wind: 12mph
Humidity: 58%   Direction: 230°SW
Pressure: 30.05"   Gusts: NA
Location:  43.45°N, 71.22°W
Report Text: KLCI 231615Z AUTO 23010KT 10SM SCT028 OVC070 12/04 A3005 RMK AO1
Loading
Personal Weather Stations






























Interactive Weather Map New forecast layout! Learn more

10-Day Weather Forecast

Advertisements
Track Severe Weather on mobile